Long Lake, Washington
Current Conditions -  °F | °C
As of 12:35 PM on Tuesday 25 Nov 2014 (Local Time) from KPWT Reporting Station
Overcast Overcast  
Wind Chill: 46°   Ceiling: 900
Heat Index: 48°   Visibility: 3mi
Dew Point: 48°   Wind: 6mph
Humidity: 100%   Direction: 30°NNE
Pressure: 30.23"   Gusts: NA
Location:  47.5378°N, 122.589°W
Report Text: KPWT 252035Z AUTO 03005KT 3SM SCT005 BKN009 OVC018 09/09 A3023 RMK AO1 P0002
Loading
Personal Weather Stations






























Interactive Weather Map New forecast layout! Learn more

10-Day Weather Forecast

Advertisements
Track Severe Weather on mobile